createdAt,value
2022-11-07T00:02:07.899Z,1.90
2022-11-07T00:04:34.924Z,2.22
2022-11-07T00:07:01.544Z,2.78
2022-11-07T00:09:28.276Z,2.35
2022-11-07T00:11:54.599Z,2.63
2022-11-07T00:14:20.950Z,2.35
2022-11-07T00:16:48.081Z,2.58
2022-11-07T00:19:15.682Z,1.63
2022-11-07T00:21:42.085Z,1.77
2022-11-07T00:24:08.898Z,1.88
2022-11-07T00:26:35.904Z,2.53
2022-11-07T00:29:02.585Z,1.42
2022-11-07T00:31:28.993Z,1.80
2022-11-07T00:33:56.178Z,2.70
2022-11-07T00:36:22.453Z,2.58
2022-11-07T00:38:48.809Z,1.88
2022-11-07T00:41:15.220Z,1.50
2022-11-07T00:43:41.860Z,2.45
2022-11-07T00:46:08.964Z,2.53
2022-11-07T00:48:36.599Z,1.85
2022-11-07T00:51:07.174Z,1.77
2022-11-07T00:53:33.510Z,1.85
2022-11-07T00:56:03.339Z,1.77
2022-11-07T00:58:29.702Z,2.05
2022-11-07T01:00:56.023Z,2.30
2022-11-07T01:03:40.746Z,1.90
2022-11-07T01:06:07.282Z,1.55
2022-11-07T01:08:33.644Z,1.73
2022-11-07T01:11:02.792Z,1.77
2022-11-07T01:13:29.122Z,2.28
2022-11-07T01:15:55.420Z,1.52
2022-11-07T01:18:21.888Z,1.40
2022-11-07T01:20:49.548Z,1.83
2022-11-07T01:23:16.984Z,2.08
2022-11-07T01:25:43.596Z,1.92
2022-11-07T01:28:10.019Z,1.48
2022-11-07T01:30:40.611Z,2.10
2022-11-07T01:33:07.257Z,2.05
2022-11-07T01:35:34.300Z,1.42
2022-11-07T01:38:00.656Z,1.65
2022-11-07T01:40:27.388Z,1.98
2022-11-07T01:42:54.625Z,1.58
2022-11-07T01:45:23.548Z,1.75
2022-11-07T01:47:51.440Z,1.55
2022-11-07T01:50:18.442Z,1.27
2022-11-07T01:52:46.312Z,1.63
2022-11-07T01:55:15.864Z,1.60
2022-11-07T01:57:48.898Z,1.40
2022-11-07T02:00:16.976Z,1.88
2022-11-07T02:02:44.440Z,1.58
2022-11-07T02:05:13.957Z,1.83
2022-11-07T02:07:41.043Z,1.73
2022-11-07T02:10:08.473Z,1.50
2022-11-07T02:12:34.948Z,1.30
2022-11-07T02:15:01.563Z,1.75
2022-11-07T02:17:28.379Z,1.20
2022-11-07T02:19:56.610Z,1.67
2022-11-07T02:22:32.199Z,1.30
2022-11-07T02:24:59.982Z,1.17
2022-11-07T02:27:27.623Z,1.75
2022-11-07T02:29:57.104Z,1.75
2022-11-07T02:32:23.643Z,1.55
2022-11-07T02:35:00.246Z,1.40
2022-11-07T02:37:35.802Z,1.85
2022-11-07T02:40:05.120Z,1.45
2022-11-07T02:42:43.403Z,1.38
2022-11-07T02:45:11.609Z,1.30
2022-11-07T02:47:37.908Z,1.63
2022-11-07T02:50:06.575Z,1.75
2022-11-07T02:52:32.909Z,1.58
2022-11-07T02:54:59.228Z,2.22
2022-11-07T02:57:25.572Z,1.40
2022-11-07T02:59:51.914Z,1.55
2022-11-07T03:02:18.380Z,1.83
2022-11-07T03:04:48.961Z,2.00
2022-11-07T03:07:15.578Z,1.20
2022-11-07T03:09:41.896Z,1.42
2022-11-07T03:12:08.195Z,1.50
2022-11-07T03:14:34.631Z,1.52
2022-11-07T03:17:00.978Z,1.73
2022-11-07T03:19:27.417Z,1.77
2022-11-07T03:21:53.761Z,1.52
2022-11-07T03:24:20.094Z,1.50
2022-11-07T03:26:46.440Z,1.70
2022-11-07T03:29:12.776Z,1.75
2022-11-07T03:31:39.132Z,1.20
2022-11-07T03:34:05.449Z,1.83
2022-11-07T03:36:31.756Z,1.73
2022-11-07T03:38:58.080Z,1.80
2022-11-07T03:41:24.729Z,1.67
2022-11-07T03:43:51.197Z,1.58
2022-11-07T03:46:17.580Z,2.22
2022-11-07T03:48:43.948Z,1.65
2022-11-07T03:51:10.535Z,1.40
2022-11-07T03:53:36.888Z,1.25
2022-11-07T03:56:07.524Z,1.67
2022-11-07T03:58:33.864Z,1.45
2022-11-07T04:01:00.227Z,1.25
2022-11-07T04:03:26.729Z,1.80
2022-11-07T04:05:53.121Z,1.20
2022-11-07T04:08:19.494Z,1.45
2022-11-07T04:10:45.806Z,1.48
2022-11-07T04:13:31.054Z,1.42
2022-11-07T04:16:17.755Z,1.38
2022-11-07T04:18:44.320Z,1.77
2022-11-07T04:21:10.804Z,1.45
2022-11-07T04:23:37.384Z,1.40
2022-11-07T04:26:22.311Z,1.58
2022-11-07T04:28:48.635Z,1.33
2022-11-07T04:31:14.950Z,1.35
2022-11-07T04:33:41.279Z,1.25
2022-11-07T04:36:07.810Z,1.55
2022-11-07T04:38:34.151Z,1.60
2022-11-07T04:41:00.503Z,1.58
2022-11-07T04:43:27.266Z,1.30
2022-11-07T04:45:53.658Z,1.15
2022-11-07T04:48:20.116Z,1.30
2022-11-07T04:50:46.652Z,1.38
2022-11-07T04:53:14.635Z,1.42
2022-11-07T04:55:41.607Z,1.33
2022-11-07T04:58:08.311Z,1.80
2022-11-07T05:00:34.906Z,1.13
2022-11-07T05:03:01.522Z,1.67
2022-11-07T05:05:28.185Z,1.40
2022-11-07T05:07:54.540Z,1.63
2022-11-07T05:10:22.994Z,1.63
2022-11-07T05:12:49.469Z,1.60
2022-11-07T05:15:16.739Z,1.63
2022-11-07T05:17:43.330Z,1.10
2022-11-07T05:20:28.528Z,1.10
2022-11-07T05:23:14.637Z,1.50
2022-11-07T05:25:42.680Z,1.30
2022-11-07T05:28:11.179Z,0.90
2022-11-07T05:30:38.170Z,1.38
2022-11-07T05:33:04.502Z,1.40
2022-11-07T05:35:30.891Z,1.38
2022-11-07T05:37:57.240Z,1.08
2022-11-07T05:40:23.813Z,1.08
2022-11-07T05:42:50.373Z,1.25
2022-11-07T05:45:16.823Z,1.05
2022-11-07T05:47:43.158Z,1.40
2022-11-07T05:50:09.609Z,0.85
2022-11-07T05:52:36.162Z,1.67
2022-11-07T05:55:02.552Z,1.00
2022-11-07T05:57:29.711Z,1.48
2022-11-07T05:59:56.015Z,1.45
2022-11-07T06:02:22.649Z,1.35
2022-11-07T06:04:49.098Z,1.15
2022-11-07T06:07:15.489Z,1.05
2022-11-07T06:09:41.831Z,1.08
2022-11-07T06:12:08.445Z,1.10
2022-11-07T06:14:34.777Z,0.90
2022-11-07T06:17:02.176Z,1.10
2022-11-07T06:19:28.521Z,0.95
2022-11-07T06:21:54.847Z,1.25
2022-11-07T06:24:21.211Z,0.65
2022-11-07T06:26:47.548Z,1.48
2022-11-07T06:29:13.952Z,0.90
2022-11-07T06:31:40.309Z,0.93
2022-11-07T06:34:06.668Z,0.90
2022-11-07T06:36:33.238Z,0.95
2022-11-07T06:38:59.554Z,0.95
2022-11-07T06:41:25.999Z,1.13
2022-11-07T06:43:52.414Z,1.30
2022-11-07T06:46:19.898Z,1.00
2022-11-07T06:48:46.368Z,0.98
2022-11-07T06:51:12.753Z,0.90
2022-11-07T06:53:39.333Z,1.42
2022-11-07T06:56:07.149Z,0.82
2022-11-07T06:58:33.869Z,0.98
2022-11-07T07:01:04.461Z,0.60
2022-11-07T07:03:30.885Z,1.13
2022-11-07T07:06:04.397Z,1.00
2022-11-07T07:08:30.983Z,0.90
2022-11-07T07:11:02.086Z,0.95
2022-11-07T07:15:55.394Z,1.10
2022-11-07T07:18:22.134Z,0.75
2022-11-07T07:20:49.263Z,0.90
2022-11-07T07:23:19.788Z,1.00
2022-11-07T07:25:49.463Z,1.10
2022-11-07T07:28:15.817Z,0.65
2022-11-07T07:30:44.894Z,0.82
2022-11-07T07:33:15.285Z,0.70
2022-11-07T07:35:41.779Z,0.80
2022-11-07T07:38:08.100Z,1.00
2022-11-07T07:40:34.537Z,0.80
2022-11-07T07:43:00.947Z,0.90
2022-11-07T07:45:27.527Z,0.77
2022-11-07T07:47:59.090Z,0.80
2022-11-07T07:50:25.420Z,0.60
2022-11-07T07:52:55.582Z,0.55
2022-11-07T07:55:22.058Z,1.00
2022-11-07T07:57:48.389Z,0.75
2022-11-07T08:00:15.026Z,1.10
2022-11-07T08:02:43.903Z,0.90
2022-11-07T08:05:11.203Z,0.80
2022-11-07T08:07:44.302Z,0.77
2022-11-07T08:10:39.673Z,0.70
2022-11-07T08:12:56.944Z,0.60
2022-11-07T08:15:23.411Z,0.60
2022-11-07T08:17:49.909Z,0.50
2022-11-07T08:20:17.196Z,0.47
2022-11-07T08:22:43.534Z,0.60
2022-11-07T08:25:10.601Z,0.60
2022-11-07T08:27:37.542Z,0.80
2022-11-07T08:30:04.927Z,0.60
2022-11-07T08:32:31.326Z,0.80
2022-11-07T08:34:57.648Z,0.70
2022-11-07T08:37:23.992Z,0.85
2022-11-07T08:39:50.365Z,0.50
2022-11-07T08:42:16.821Z,0.45
2022-11-07T08:44:43.161Z,0.88
2022-11-07T08:47:09.525Z,0.43
2022-11-07T08:49:35.840Z,0.50
2022-11-07T08:52:02.186Z,0.60
2022-11-07T08:54:32.250Z,0.70
2022-11-07T08:56:58.608Z,0.82
2022-11-07T08:59:24.969Z,0.50
2022-11-07T09:02:28.019Z,0.70
2022-11-07T09:04:37.703Z,0.95
2022-11-07T09:07:04.085Z,0.35
2022-11-07T09:09:30.409Z,0.50
2022-11-07T09:11:56.760Z,0.45
2022-11-07T09:14:23.083Z,0.63
2022-11-07T09:16:49.401Z,0.70
2022-11-07T09:19:15.769Z,0.47
2022-11-07T09:21:42.461Z,0.55
2022-11-07T09:24:08.763Z,0.43
2022-11-07T09:26:35.117Z,0.50
2022-11-07T09:29:01.608Z,0.60
2022-11-07T09:31:27.960Z,0.43
2022-11-07T09:33:54.276Z,0.57
2022-11-07T09:36:22.179Z,0.40
2022-11-07T09:38:48.521Z,0.47
2022-11-07T09:41:31.448Z,0.63
2022-11-07T09:44:20.816Z,0.43
2022-11-07T09:46:54.844Z,0.30
2022-11-07T09:49:28.854Z,0.30
2022-11-07T09:52:05.007Z,0.30
2022-11-07T09:54:33.218Z,0.50
2022-11-07T09:57:00.147Z,0.30
2022-11-07T09:59:37.622Z,0.47
2022-11-07T10:02:11.804Z,0.50
2022-11-07T10:04:38.195Z,0.45
2022-11-07T10:07:08.691Z,0.40
2022-11-07T10:09:48.063Z,0.32
2022-11-07T10:12:30.786Z,0.32
2022-11-07T10:15:17.411Z,0.38
2022-11-07T10:17:54.097Z,0.50
2022-11-07T10:20:35.158Z,0.50
2022-11-07T10:23:37.118Z,0.38
2022-11-07T10:26:12.700Z,0.93
2022-11-07T10:28:47.476Z,0.40
2022-11-07T10:31:14.667Z,0.40
2022-11-07T10:33:59.597Z,0.43
2022-11-07T10:36:27.275Z,0.40
2022-11-07T10:38:54.101Z,0.30
2022-11-07T10:41:22.283Z,0.38
2022-11-07T10:43:50.121Z,0.25
2022-11-07T10:46:18.911Z,0.52
2022-11-07T10:48:56.429Z,0.30
2022-11-07T10:51:39.600Z,0.57
2022-11-07T10:54:06.725Z,0.38
2022-11-07T10:56:46.576Z,0.28
2022-11-07T10:59:14.359Z,0.35
2022-11-07T11:01:40.825Z,0.13
2022-11-07T11:04:07.210Z,0.28
2022-11-07T11:06:33.573Z,0.47
2022-11-07T11:09:11.203Z,0.40
2022-11-07T11:11:37.544Z,0.40
2022-11-07T11:14:05.490Z,0.30
2022-11-07T11:16:35.164Z,0.35
2022-11-07T11:19:02.194Z,0.70
2022-11-07T11:21:38.675Z,0.52
2022-11-07T11:24:12.451Z,0.30
2022-11-07T11:26:40.337Z,0.32
2022-11-07T11:29:25.540Z,0.40
2022-11-07T11:31:52.855Z,0.40
2022-11-07T11:34:24.219Z,0.28
2022-11-07T11:36:54.982Z,0.50
2022-11-07T11:39:26.390Z,0.30
2022-11-07T11:41:52.775Z,0.38
2022-11-07T11:44:19.055Z,0.60
2022-11-07T11:46:51.954Z,0.50
2022-11-07T11:49:20.493Z,0.20
2022-11-07T11:51:49.499Z,0.22
2022-11-07T11:54:16.650Z,0.22
2022-11-07T11:56:53.619Z,0.30
2022-11-07T11:59:29.120Z,0.28
2022-11-07T12:02:00.937Z,0.45
2022-11-07T12:04:38.202Z,0.43
2022-11-07T12:07:10.401Z,0.38
2022-11-07T12:09:44.047Z,0.43
2022-11-07T12:12:24.377Z,0.40
2022-11-07T12:14:59.917Z,0.30
2022-11-07T12:17:35.229Z,0.38
2022-11-07T12:20:18.055Z,0.40
2022-11-07T12:22:52.155Z,0.30
2022-11-07T12:25:25.719Z,0.63
2022-11-07T12:27:52.003Z,0.30
2022-11-07T12:30:24.143Z,0.40
2022-11-07T12:33:00.622Z,0.25
2022-11-07T12:35:33.285Z,0.30
2022-11-07T12:38:07.440Z,0.30
2022-11-07T12:40:36.532Z,0.95
2022-11-07T12:43:21.737Z,0.20
2022-11-07T12:45:52.645Z,0.30
2022-11-07T12:50:51.866Z,0.68
2022-11-07T12:53:34.553Z,0.20
2022-11-07T12:56:03.925Z,0.32
2022-11-07T12:58:32.339Z,0.10
2022-11-07T13:00:58.982Z,0.30
2022-11-07T13:03:25.309Z,0.40
2022-11-07T13:06:00.938Z,0.30
2022-11-07T13:08:41.218Z,0.60
2022-11-07T13:11:13.426Z,0.30
2022-11-07T13:13:52.428Z,0.30
2022-11-07T13:16:27.371Z,0.22
2022-11-07T13:18:54.116Z,0.30
2022-11-07T13:21:20.543Z,0.30
2022-11-07T13:23:48.110Z,1.33
2022-11-07T13:26:45.057Z,0.40
2022-11-07T13:29:01.626Z,0.47
2022-11-07T13:31:38.807Z,0.22
2022-11-07T13:34:20.504Z,0.47
2022-11-07T13:36:48.322Z,0.30
2022-11-07T13:39:15.540Z,0.30
2022-11-07T13:41:42.566Z,0.20
2022-11-07T13:44:16.734Z,0.40
2022-11-07T13:46:45.231Z,0.28
2022-11-07T13:49:15.773Z,0.30
2022-11-07T13:51:44.065Z,0.30
2022-11-07T13:54:10.347Z,0.40
2022-11-07T13:56:41.856Z,0.32
2022-11-07T13:59:12.126Z,0.20
2022-11-07T14:01:43.286Z,0.40
2022-11-07T14:04:14.278Z,0.35
2022-11-07T14:06:40.972Z,0.38
2022-11-07T14:09:07.439Z,0.88
2022-11-07T14:11:35.222Z,0.40
2022-11-07T14:14:01.722Z,0.20
2022-11-07T14:16:30.840Z,0.35
2022-11-07T14:18:58.998Z,0.40
2022-11-07T14:21:25.310Z,0.35
2022-11-07T14:23:51.653Z,0.20
2022-11-07T14:26:30.650Z,0.32
2022-11-07T14:28:57.815Z,0.40
2022-11-07T14:31:29.336Z,0.75
2022-11-07T14:34:00.291Z,0.40
2022-11-07T14:36:27.211Z,0.30
2022-11-07T14:38:54.891Z,0.40
2022-11-07T14:41:22.133Z,0.30
2022-11-07T14:43:49.468Z,0.40
2022-11-07T14:46:18.027Z,0.22
2022-11-07T14:48:45.231Z,0.40
2022-11-07T14:51:13.230Z,0.35
2022-11-07T14:53:46.915Z,0.28
2022-11-07T14:56:14.473Z,0.30
2022-11-07T14:58:40.832Z,0.40
2022-11-07T15:01:07.201Z,0.35
2022-11-07T15:03:35.680Z,0.60
2022-11-07T15:06:22.725Z,0.35
2022-11-07T15:08:56.110Z,0.30
2022-11-07T15:11:28.243Z,0.40
2022-11-07T15:13:57.178Z,0.38
2022-11-07T15:16:29.695Z,0.32
2022-11-07T15:19:00.573Z,0.65
2022-11-07T15:21:53.802Z,0.45
2022-11-07T15:24:31.622Z,0.45
2022-11-07T15:27:19.652Z,0.47
2022-11-07T15:29:56.722Z,0.30
2022-11-07T15:32:24.718Z,0.35
2022-11-07T15:37:38.650Z,0.40
2022-11-07T15:40:16.508Z,0.50
2022-11-07T15:42:42.943Z,0.40
2022-11-07T15:45:10.078Z,0.55
2022-11-07T15:47:36.584Z,0.30
2022-11-07T15:50:03.598Z,0.55
2022-11-07T15:52:29.959Z,0.40
2022-11-07T15:54:56.425Z,0.52
2022-11-07T15:57:25.520Z,0.40
2022-11-07T15:59:51.866Z,0.55
2022-11-07T16:02:23.205Z,0.40
2022-11-07T16:04:49.856Z,0.40
2022-11-07T16:07:17.883Z,0.45
2022-11-07T16:09:45.885Z,0.32
2022-11-07T16:12:16.091Z,0.60
2022-11-07T16:14:44.522Z,0.73
2022-11-07T16:17:18.350Z,0.50
2022-11-07T16:19:45.088Z,0.65
2022-11-07T16:22:13.095Z,0.50
2022-11-07T16:24:39.443Z,0.40
2022-11-07T16:27:05.810Z,0.45
2022-11-07T16:29:32.342Z,0.60
2022-11-07T16:31:59.013Z,0.30
2022-11-07T16:34:25.344Z,0.50
2022-11-07T16:36:51.733Z,0.47
2022-11-07T16:39:25.381Z,0.70
2022-11-07T16:41:54.759Z,0.50
2022-11-07T16:44:26.260Z,0.63
2022-11-07T16:46:54.649Z,0.38
2022-11-07T16:49:24.209Z,0.40
2022-11-07T16:51:50.638Z,0.52
2022-11-07T16:54:21.361Z,0.70
2022-11-07T16:56:51.139Z,0.45
2022-11-07T16:59:23.173Z,0.50
2022-11-07T17:01:50.434Z,0.70
2022-11-07T17:04:16.954Z,0.73
2022-11-07T17:06:46.873Z,0.60
2022-11-07T17:09:16.710Z,0.80
2022-11-07T17:11:43.882Z,0.50
2022-11-07T17:14:10.236Z,0.68
2022-11-07T17:16:36.889Z,0.40
2022-11-07T17:19:05.065Z,1.17
2022-11-07T17:21:32.986Z,0.57
2022-11-07T17:24:00.273Z,0.50
2022-11-07T17:26:30.831Z,0.77
2022-11-07T17:28:58.068Z,0.50
2022-11-07T17:31:24.824Z,0.60
2022-11-07T17:33:54.301Z,0.43
2022-11-07T17:36:25.833Z,0.50
2022-11-07T17:38:53.044Z,0.45
2022-11-07T17:41:19.463Z,0.70
2022-11-07T17:43:48.918Z,0.70
2022-11-07T17:46:16.515Z,0.43
2022-11-07T17:48:47.137Z,0.47
2022-11-07T17:51:14.352Z,0.60
2022-11-07T17:53:59.666Z,1.38
2022-11-07T17:56:27.150Z,0.50
2022-11-07T17:58:54.805Z,0.50
2022-11-07T18:01:22.634Z,0.80
2022-11-07T18:03:50.207Z,0.60
2022-11-07T18:06:16.737Z,0.68
2022-11-07T18:08:52.087Z,0.57
2022-11-07T18:11:20.798Z,0.50
2022-11-07T18:13:49.891Z,0.52
2022-11-07T18:16:17.882Z,0.60
2022-11-07T18:18:44.495Z,0.40
2022-11-07T18:21:11.448Z,0.75
2022-11-07T18:23:37.971Z,0.43
2022-11-07T18:26:05.922Z,0.70
2022-11-07T18:28:33.666Z,0.80
2022-11-07T18:31:03.900Z,0.47
2022-11-07T18:33:30.295Z,0.70
2022-11-07T18:35:58.064Z,0.80
2022-11-07T18:38:24.439Z,0.70
2022-11-07T18:40:55.854Z,0.52
2022-11-07T18:43:22.417Z,0.65
2022-11-07T18:45:48.816Z,0.82
2022-11-07T18:48:15.553Z,0.90
2022-11-07T18:50:46.513Z,0.68
2022-11-07T18:53:14.100Z,0.60
2022-11-07T18:55:40.532Z,1.02
2022-11-07T18:58:07.079Z,0.55
2022-11-07T19:00:33.641Z,0.55
2022-11-07T19:03:00.167Z,0.65
2022-11-07T19:05:27.478Z,0.57
2022-11-07T19:07:53.878Z,0.60
2022-11-07T19:10:20.349Z,0.80
2022-11-07T19:12:47.045Z,1.15
2022-11-07T19:15:14.077Z,0.73
2022-11-07T19:17:40.425Z,0.70
2022-11-07T19:20:06.997Z,0.80
2022-11-07T19:22:33.392Z,0.90
2022-11-07T19:24:59.668Z,0.70
2022-11-07T19:27:25.980Z,0.73
2022-11-07T19:29:52.396Z,0.50
2022-11-07T19:32:18.777Z,0.60
2022-11-07T19:34:45.094Z,0.55
2022-11-07T19:37:11.954Z,0.88
2022-11-07T19:39:38.421Z,0.57
2022-11-07T19:42:04.771Z,0.60
2022-11-07T19:44:31.487Z,0.82
2022-11-07T19:46:57.776Z,0.90
2022-11-07T19:49:24.097Z,0.70
2022-11-07T19:51:52.188Z,0.55
2022-11-07T19:54:18.543Z,0.63
2022-11-07T19:56:44.813Z,0.60
2022-11-07T19:59:11.156Z,0.70
2022-11-07T20:01:39.327Z,0.50
2022-11-07T20:04:05.763Z,0.60
2022-11-07T20:06:35.531Z,0.60
2022-11-07T20:09:02.505Z,0.63
2022-11-07T20:11:28.947Z,0.80
2022-11-07T20:13:58.776Z,0.63
2022-11-07T20:16:28.339Z,0.60
2022-11-07T20:18:54.641Z,0.60
2022-11-07T20:21:22.342Z,0.75
2022-11-07T20:23:49.916Z,0.50
2022-11-07T20:26:18.638Z,0.75
2022-11-07T20:28:45.576Z,0.60
2022-11-07T20:31:15.041Z,0.60
2022-11-07T20:33:41.370Z,0.63
2022-11-07T20:36:09.113Z,0.70
2022-11-07T20:38:35.930Z,0.50
2022-11-07T20:41:03.337Z,0.63
2022-11-07T20:43:29.924Z,0.60
2022-11-07T20:45:56.627Z,0.57
2022-11-07T20:48:22.951Z,0.60
2022-11-07T20:50:49.280Z,0.50
2022-11-07T20:53:15.874Z,0.47
2022-11-07T20:55:43.068Z,0.50
2022-11-07T20:58:10.164Z,0.70
2022-11-07T21:00:37.837Z,0.50
2022-11-07T21:03:04.197Z,0.82
2022-11-07T21:05:30.503Z,0.40
2022-11-07T21:07:56.834Z,0.60
2022-11-07T21:10:23.137Z,0.60
2022-11-07T21:12:49.539Z,0.63
2022-11-07T21:15:15.998Z,0.40
2022-11-07T21:17:42.300Z,0.40
2022-11-07T21:20:10.205Z,0.32
2022-11-07T21:22:36.573Z,0.30
2022-11-07T21:25:04.218Z,0.60
2022-11-07T21:27:34.139Z,0.75
2022-11-07T21:30:00.468Z,1.05
2022-11-07T21:32:26.825Z,0.50
2022-11-07T21:34:53.161Z,0.45
2022-11-07T21:37:19.484Z,0.40
2022-11-07T21:39:45.809Z,0.52
2022-11-07T21:42:12.718Z,0.30
2022-11-07T21:44:39.021Z,0.70
2022-11-07T21:47:05.385Z,0.65
2022-11-07T21:49:31.747Z,0.60
2022-11-07T21:51:58.051Z,0.75
2022-11-07T21:54:24.739Z,0.90
2022-11-07T21:56:51.079Z,0.70
2022-11-07T21:59:19.556Z,0.60
2022-11-07T22:01:48.552Z,0.30
2022-11-07T22:04:15.381Z,0.32
2022-11-07T22:06:43.531Z,0.65
2022-11-07T22:09:11.127Z,0.40
2022-11-07T22:11:37.425Z,0.47
2022-11-07T22:14:03.865Z,0.50
2022-11-07T22:16:31.413Z,0.40
2022-11-07T22:18:58.711Z,0.68
2022-11-07T22:21:25.175Z,0.50
2022-11-07T22:23:51.545Z,0.60
2022-11-07T22:26:25.168Z,0.60
2022-11-07T22:28:51.521Z,0.50
2022-11-07T22:31:29.948Z,0.45
2022-11-07T22:33:56.914Z,0.60
2022-11-07T22:36:23.464Z,0.40
2022-11-07T22:38:50.341Z,0.50
2022-11-07T22:41:17.902Z,0.50
2022-11-07T22:43:44.248Z,0.32
2022-11-07T22:46:12.082Z,0.50
2022-11-07T22:48:38.483Z,0.50
2022-11-07T22:51:09.511Z,0.40
2022-11-07T22:53:35.852Z,0.40
2022-11-07T22:56:09.214Z,0.50
2022-11-07T22:58:35.662Z,0.50
2022-11-07T23:01:02.141Z,0.30
2022-11-07T23:03:28.472Z,0.35
2022-11-07T23:05:54.753Z,0.32
2022-11-07T23:08:21.116Z,0.50
2022-11-07T23:11:13.738Z,0.43
2022-11-07T23:13:43.749Z,0.50
2022-11-07T23:16:19.499Z,0.80
2022-11-07T23:18:45.872Z,0.40
2022-11-07T23:21:12.258Z,0.60
2022-11-07T23:23:38.879Z,0.73
2022-11-07T23:26:06.232Z,0.50
2022-11-07T23:28:32.549Z,0.40
2022-11-07T23:30:58.884Z,0.60
2022-11-07T23:33:25.252Z,0.57
2022-11-07T23:35:52.237Z,0.45
2022-11-07T23:38:18.936Z,0.50
2022-11-07T23:40:45.624Z,0.50
2022-11-07T23:43:11.928Z,0.77
2022-11-07T23:45:57.011Z,0.70
2022-11-07T23:48:41.793Z,0.55
2022-11-07T23:51:12.146Z,0.60
2022-11-07T23:53:57.324Z,0.50
2022-11-07T23:56:25.248Z,0.52
2022-11-07T23:59:10.230Z,0.40
